sensor_id;sensor_type;location;lat;lon;timestamp;pressure;altitude;pressure_sealevel;temperature;humidity
41866;BME280;27539;43.222;27.558;2022-09-11T00:39:15;100057.44;;;20.31;100.00
41866;BME280;27539;43.222;27.558;2022-09-11T00:41:43;100055.00;;;20.38;100.00
41866;BME280;27539;43.222;27.558;2022-09-11T00:47:19;100106.44;;;20.88;100.00
41866;BME280;27539;43.222;27.558;2022-09-11T00:49:41;100051.72;;;20.44;100.00
41866;BME280;27539;43.222;27.558;2022-09-11T00:52:29;100099.50;;;20.63;100.00
41866;BME280;27539;43.222;27.558;2022-09-11T00:55:05;100045.03;;;20.40;100.00
41866;BME280;27539;43.222;27.558;2022-09-11T01:03:10;100094.22;;;20.70;100.00
41866;BME280;27539;43.222;27.558;2022-09-11T01:08:58;100075.91;;;20.59;100.00
41866;BME280;27539;43.222;27.558;2022-09-11T01:41:06;100071.47;;;20.76;100.00
41866;BME280;27539;43.222;27.558;2022-09-11T01:51:51;100075.94;;;20.68;100.00
41866;BME280;27539;43.222;27.558;2022-09-11T01:54:20;100032.63;;;20.50;100.00
41866;BME280;27539;43.222;27.558;2022-09-11T01:59:57;100070.13;;;20.73;100.00
41866;BME280;27539;43.222;27.558;2022-09-11T02:02:29;100070.75;;;20.61;100.00
41866;BME280;27539;43.222;27.558;2022-09-11T02:05:14;100062.63;;;20.68;100.00
41866;BME280;27539;43.222;27.558;2022-09-11T02:07:50;100076.13;;;20.80;100.00
41866;BME280;27539;43.222;27.558;2022-09-11T02:10:26;100058.47;;;20.66;100.00
41866;BME280;27539;43.222;27.558;2022-09-11T02:13:17;100071.66;;;20.88;100.00
41866;BME280;27539;43.222;27.558;2022-09-11T02:21:59;100064.16;;;20.83;100.00
41866;BME280;27539;43.222;27.558;2022-09-11T02:24:25;100063.97;;;20.71;100.00
41866;BME280;27539;43.222;27.558;2022-09-11T02:26:56;100061.13;;;20.71;100.00
41866;BME280;27539;43.222;27.558;2022-09-11T02:29:25;100021.31;;;20.50;100.00
41866;BME280;27539;43.222;27.558;2022-09-11T02:31:51;100015.06;;;20.62;100.00
41866;BME280;27539;43.222;27.558;2022-09-11T02:34:24;99999.94;;;20.66;100.00
41866;BME280;27539;43.222;27.558;2022-09-11T03:27:57;100030.22;;;19.72;100.00
41866;BME280;27539;43.222;27.558;2022-09-11T03:33:34;100047.34;;;19.76;100.00
41866;BME280;27539;43.222;27.558;2022-09-11T03:36:00;100036.56;;;19.78;100.00
41866;BME280;27539;43.222;27.558;2022-09-11T04:50:21;100079.34;;;19.71;100.00
41866;BME280;27539;43.222;27.558;2022-09-11T04:52:46;100105.84;;;20.06;100.00
41866;BME280;27539;43.222;27.558;2022-09-11T04:55:12;100063.56;;;19.93;100.00
41866;BME280;27539;43.222;27.558;2022-09-11T04:57:37;100121.63;;;20.39;100.00
41866;BME280;27539;43.222;27.558;2022-09-11T05:00:04;100080.88;;;20.31;100.00
41866;BME280;27539;43.222;27.558;2022-09-11T05:02:30;100100.94;;;20.52;100.00
41866;BME280;27539;43.222;27.558;2022-09-11T05:07:34;100062.66;;;20.37;100.00
41866;BME280;27539;43.222;27.558;2022-09-11T06:13:40;100014.69;;;22.29;100.00
41866;BME280;27539;43.222;27.558;2022-09-11T06:31:03;100080.44;;;23.20;100.00
41866;BME280;27539;43.222;27.558;2022-09-11T06:36:52;99991.25;;;22.79;100.00
41866;BME280;27539;43.222;27.558;2022-09-11T06:47:48;100012.91;;;23.13;100.00
41866;BME280;27539;43.222;27.558;2022-09-11T06:50:14;100066.84;;;23.55;100.00
41866;BME280;27539;43.222;27.558;2022-09-11T06:52:40;100069.22;;;23.74;100.00
41866;BME280;27539;43.222;27.558;2022-09-11T06:55:07;100059.44;;;23.84;100.00
41866;BME280;27539;43.222;27.558;2022-09-11T06:57:37;100022.59;;;23.75;100.00
41866;BME280;27539;43.222;27.558;2022-09-11T07:08:59;100009.69;;;23.57;100.00
41866;BME280;27539;43.222;27.558;2022-09-11T07:11:31;100010.75;;;23.73;100.00
41866;BME280;27539;43.222;27.558;2022-09-11T07:13:59;100052.59;;;23.97;100.00
41866;BME280;27539;43.222;27.558;2022-09-11T07:16:25;100073.34;;;24.10;100.00
41866;BME280;27539;43.222;27.558;2022-09-11T07:18:51;100058.34;;;23.76;100.00
41866;BME280;27539;43.222;27.558;2022-09-11T07:21:22;100037.81;;;23.49;100.00
41866;BME280;27539;43.222;27.558;2022-09-11T07:23:58;100028.91;;;23.39;100.00
41866;BME280;27539;43.222;27.558;2022-09-11T07:26:26;100043.72;;;23.44;100.00
41866;BME280;27539;43.222;27.558;2022-09-11T07:28:52;100038.91;;;23.57;100.00
41866;BME280;27539;43.222;27.558;2022-09-11T07:31:25;100090.81;;;24.21;100.00
41866;BME280;27539;43.222;27.558;2022-09-11T07:33:53;100060.25;;;24.30;100.00
41866;BME280;27539;43.222;27.558;2022-09-11T07:36:21;100074.94;;;24.53;100.00
41866;BME280;27539;43.222;27.558;2022-09-11T07:38:48;100066.03;;;24.54;100.00
41866;BME280;27539;43.222;27.558;2022-09-11T07:41:15;100089.63;;;24.79;100.00
41866;BME280;27539;43.222;27.558;2022-09-11T07:43:41;100061.41;;;24.87;100.00
41866;BME280;27539;43.222;27.558;2022-09-11T07:46:10;100092.50;;;25.16;100.00
41866;BME280;27539;43.222;27.558;2022-09-11T07:48:35;100094.25;;;25.09;100.00
41866;BME280;27539;43.222;27.558;2022-09-11T07:51:04;100082.50;;;25.10;100.00
41866;BME280;27539;43.222;27.558;2022-09-11T07:53:34;100073.88;;;25.07;100.00
41866;BME280;27539;43.222;27.558;2022-09-11T07:56:04;100083.59;;;24.93;100.00
41866;BME280;27539;43.222;27.558;2022-09-11T07:58:41;100086.91;;;24.95;100.00
41866;BME280;27539;43.222;27.558;2022-09-11T08:01:08;100030.03;;;24.58;100.00
41866;BME280;27539;43.222;27.558;2022-09-11T08:03:35;100100.44;;;25.23;100.00
41866;BME280;27539;43.222;27.558;2022-09-11T08:06:19;100097.81;;;25.18;100.00
41866;BME280;27539;43.222;27.558;2022-09-11T08:08:45;100089.66;;;25.29;100.00
41866;BME280;27539;43.222;27.558;2022-09-11T08:11:12;100098.72;;;25.59;100.00
41866;BME280;27539;43.222;27.558;2022-09-11T08:13:38;100055.06;;;25.42;100.00
41866;BME280;27539;43.222;27.558;2022-09-11T08:16:05;100082.34;;;25.56;100.00
41866;BME280;27539;43.222;27.558;2022-09-11T08:18:31;100092.19;;;25.58;100.00
41866;BME280;27539;43.222;27.558;2022-09-11T08:21:05;100064.00;;;25.41;100.00
41866;BME280;27539;43.222;27.558;2022-09-11T08:23:33;100066.66;;;25.62;100.00
41866;BME280;27539;43.222;27.558;2022-09-11T08:26:09;100077.78;;;26.07;100.00
41866;BME280;27539;43.222;27.558;2022-09-11T08:28:36;100050.88;;;26.21;100.00
41866;BME280;27539;43.222;27.558;2022-09-11T08:31:03;100046.34;;;26.20;100.00
41866;BME280;27539;43.222;27.558;2022-09-11T08:33:29;100066.16;;;26.44;100.00
41866;BME280;27539;43.222;27.558;2022-09-11T08:35:57;100079.19;;;26.74;98.74
41866;BME280;27539;43.222;27.558;2022-09-11T08:38:23;100072.16;;;26.87;98.11
41866;BME280;27539;43.222;27.558;2022-09-11T08:40:49;100064.06;;;26.89;92.76
41866;BME280;27539;43.222;27.558;2022-09-11T08:43:27;100058.25;;;26.85;93.56
41866;BME280;27539;43.222;27.558;2022-09-11T08:46:00;100047.84;;;27.09;93.58
41866;BME280;27539;43.222;27.558;2022-09-11T08:48:36;100051.56;;;27.13;89.97
41866;BME280;27539;43.222;27.558;2022-09-11T08:51:02;100055.47;;;27.21;90.17
41866;BME280;27539;43.222;27.558;2022-09-11T08:53:30;100059.41;;;27.32;87.52
41866;BME280;27539;43.222;27.558;2022-09-11T08:56:02;100049.03;;;27.43;88.26
41866;BME280;27539;43.222;27.558;2022-09-11T09:07:40;100050.00;;;27.15;88.46
41866;BME280;27539;43.222;27.558;2022-09-11T09:12:58;100031.44;;;27.22;83.50
41866;BME280;27539;43.222;27.558;2022-09-11T09:18:26;100040.94;;;27.65;79.88
41866;BME280;27539;43.222;27.558;2022-09-11T09:21:22;100030.56;;;27.56;76.68
41866;BME280;27539;43.222;27.558;2022-09-11T09:23:56;100032.16;;;27.54;79.49
41866;BME280;27539;43.222;27.558;2022-09-11T09:26:28;100006.19;;;27.63;78.20
41866;BME280;27539;43.222;27.558;2022-09-11T09:28:59;100033.94;;;28.01;73.38
41866;BME280;27539;43.222;27.558;2022-09-11T09:31:29;100052.00;;;28.05;71.83
41866;BME280;27539;43.222;27.558;2022-09-11T09:34:07;100024.09;;;27.79;74.55
41866;BME280;27539;43.222;27.558;2022-09-11T09:36:45;100021.25;;;27.79;75.99
41866;BME280;27539;43.222;27.558;2022-09-11T09:39:15;100043.84;;;27.84;74.64
41866;BME280;27539;43.222;27.558;2022-09-11T09:47:32;100032.63;;;28.18;73.75
41866;BME280;27539;43.222;27.558;2022-09-11T09:49:57;100016.06;;;28.27;70.94
41866;BME280;27539;43.222;27.558;2022-09-11T09:52:31;100043.31;;;28.21;70.29
41866;BME280;27539;43.222;27.558;2022-09-11T09:55:04;100031.88;;;28.21;70.33
41866;BME280;27539;43.222;27.558;2022-09-11T09:57:34;100013.59;;;28.49;71.38
41866;BME280;27539;43.222;27.558;2022-09-11T10:00:04;100017.56;;;28.21;70.26
41866;BME280;27539;43.222;27.558;2022-09-11T10:02:42;100020.56;;;28.28;68.09
41866;BME280;27539;43.222;27.558;2022-09-11T10:07:55;100025.00;;;28.26;65.84
41866;BME280;27539;43.222;27.558;2022-09-11T10:10:23;100022.94;;;28.46;64.96
41866;BME280;27539;43.222;27.558;2022-09-11T10:12:49;99997.50;;;28.63;62.10
41866;BME280;27539;43.222;27.558;2022-09-11T10:15:22;100010.66;;;28.68;57.17
41866;BME280;27539;43.222;27.558;2022-09-11T10:17:48;100016.66;;;28.59;56.58
41866;BME280;27539;43.222;27.558;2022-09-11T10:22:40;99992.50;;;28.57;60.75
41866;BME280;27539;43.222;27.558;2022-09-11T10:25:25;100005.22;;;28.86;59.27
41866;BME280;27539;43.222;27.558;2022-09-11T10:27:57;100005.31;;;28.93;59.01
41866;BME280;27539;43.222;27.558;2022-09-11T10:33:01;100020.00;;;28.92;59.19
41866;BME280;27539;43.222;27.558;2022-09-11T10:35:29;99995.06;;;28.65;57.64
41866;BME280;27539;43.222;27.558;2022-09-11T10:38:16;99987.81;;;28.26;57.01
41866;BME280;27539;43.222;27.558;2022-09-11T10:43:43;100017.19;;;27.99;64.37
41866;BME280;27539;43.222;27.558;2022-09-11T10:46:31;99993.84;;;27.78;62.47
41866;BME280;27539;43.222;27.558;2022-09-11T10:51:32;99966.72;;;28.34;56.53
41866;BME280;27539;43.222;27.558;2022-09-11T11:00:25;99994.00;;;28.51;60.69
41866;BME280;27539;43.222;27.558;2022-09-11T11:02:55;100003.94;;;28.57;58.54
41866;BME280;27539;43.222;27.558;2022-09-11T11:09:04;99997.63;;;28.97;59.23
41866;BME280;27539;43.222;27.558;2022-09-11T11:12:22;99980.78;;;28.92;56.64
41866;BME280;27539;43.222;27.558;2022-09-11T11:15:29;99995.56;;;28.71;61.89
41866;BME280;27539;43.222;27.558;2022-09-11T11:18:06;99969.25;;;28.89;58.46
41866;BME280;27539;43.222;27.558;2022-09-11T11:29:17;99967.53;;;29.37;59.30
41866;BME280;27539;43.222;27.558;2022-09-11T11:37:12;99968.69;;;29.33;56.89
41866;BME280;27539;43.222;27.558;2022-09-11T11:47:28;99955.63;;;29.65;53.93
41866;BME280;27539;43.222;27.558;2022-09-11T11:55:19;99924.69;;;29.48;52.88
41866;BME280;27539;43.222;27.558;2022-09-11T11:58:12;99958.72;;;29.53;52.32
41866;BME280;27539;43.222;27.558;2022-09-11T12:00:42;99941.97;;;29.59;50.80
41866;BME280;27539;43.222;27.558;2022-09-11T12:03:19;99940.63;;;29.49;48.01
41866;BME280;27539;43.222;27.558;2022-09-11T12:05:48;99943.69;;;29.63;48.42
41866;BME280;27539;43.222;27.558;2022-09-11T12:08:14;99949.25;;;29.83;48.63
41866;BME280;27539;43.222;27.558;2022-09-11T12:10:44;99912.53;;;29.62;51.05
41866;BME280;27539;43.222;27.558;2022-09-11T12:13:15;99919.91;;;29.25;49.98
41866;BME280;27539;43.222;27.558;2022-09-11T12:18:26;99928.97;;;30.02;48.45
41866;BME280;27539;43.222;27.558;2022-09-11T12:26:25;99940.63;;;29.49;48.35
41866;BME280;27539;43.222;27.558;2022-09-11T12:34:54;99938.94;;;29.75;49.30
41866;BME280;27539;43.222;27.558;2022-09-11T12:37:41;99925.44;;;29.79;47.24
41866;BME280;27539;43.222;27.558;2022-09-11T12:40:22;99932.84;;;29.80;48.07
41866;BME280;27539;43.222;27.558;2022-09-11T12:45:42;99929.81;;;29.65;47.81
41866;BME280;27539;43.222;27.558;2022-09-11T12:48:20;99922.53;;;29.41;48.69
41866;BME280;27539;43.222;27.558;2022-09-11T12:50:56;99915.97;;;29.41;51.13
41866;BME280;27539;43.222;27.558;2022-09-11T12:53:31;99917.13;;;29.66;49.36
41866;BME280;27539;43.222;27.558;2022-09-11T12:56:02;99922.06;;;29.69;49.31
41866;BME280;27539;43.222;27.558;2022-09-11T12:58:33;99895.94;;;29.75;49.43
41866;BME280;27539;43.222;27.558;2022-09-11T13:01:06;99900.22;;;29.95;49.20
41866;BME280;27539;43.222;27.558;2022-09-11T13:04:02;99910.66;;;29.73;50.48
41866;BME280;27539;43.222;27.558;2022-09-11T13:09:05;99893.31;;;29.28;50.16
41866;BME280;27539;43.222;27.558;2022-09-11T13:11:43;99892.25;;;29.40;52.54
41866;BME280;27539;43.222;27.558;2022-09-11T13:16:57;99901.91;;;29.62;49.70
41866;BME280;27539;43.222;27.558;2022-09-11T13:19:33;99904.78;;;29.28;50.70
41866;BME280;27539;43.222;27.558;2022-09-11T13:22:00;99900.78;;;29.37;49.70
41866;BME280;27539;43.222;27.558;2022-09-11T13:24:28;99900.28;;;29.27;48.47
41866;BME280;27539;43.222;27.558;2022-09-11T13:27:06;99891.91;;;29.49;49.48
41866;BME280;27539;43.222;27.558;2022-09-11T13:29:35;99898.28;;;29.65;48.25
41866;BME280;27539;43.222;27.558;2022-09-11T13:32:07;99900.81;;;29.74;48.95
41866;BME280;27539;43.222;27.558;2022-09-11T13:34:36;99876.78;;;29.48;47.80
41866;BME280;27539;43.222;27.558;2022-09-11T13:37:08;99885.84;;;29.54;48.01
41866;BME280;27539;43.222;27.558;2022-09-11T13:39:39;99885.44;;;29.52;47.97
41866;BME280;27539;43.222;27.558;2022-09-11T13:42:11;99842.72;;;29.40;48.39
41866;BME280;27539;43.222;27.558;2022-09-11T13:44:43;99851.63;;;29.68;48.03
41866;BME280;27539;43.222;27.558;2022-09-11T13:47:19;99883.97;;;29.69;49.08
41866;BME280;27539;43.222;27.558;2022-09-11T13:49:46;99887.63;;;29.66;47.18
41866;BME280;27539;43.222;27.558;2022-09-11T13:52:13;99888.47;;;29.66;47.91
41866;BME280;27539;43.222;27.558;2022-09-11T13:54:44;99895.28;;;29.55;47.42
41866;BME280;27539;43.222;27.558;2022-09-11T13:57:23;99887.16;;;29.26;49.40
41866;BME280;27539;43.222;27.558;2022-09-11T13:59:55;99883.28;;;29.12;48.48
41866;BME280;27539;43.222;27.558;2022-09-11T14:07:32;99879.88;;;29.33;50.12
41866;BME280;27539;43.222;27.558;2022-09-11T14:10:04;99855.72;;;29.30;47.51
41866;BME280;27539;43.222;27.558;2022-09-11T14:12:31;99869.16;;;29.63;47.43
41866;BME280;27539;43.222;27.558;2022-09-11T14:15:05;99852.94;;;29.37;47.87
41866;BME280;27539;43.222;27.558;2022-09-11T14:17:33;99880.22;;;28.97;48.91
41866;BME280;27539;43.222;27.558;2022-09-11T14:20:00;99880.50;;;29.15;49.22
41866;BME280;27539;43.222;27.558;2022-09-11T14:22:30;99873.09;;;29.14;49.73
41866;BME280;27539;43.222;27.558;2022-09-11T14:25:17;99871.63;;;29.27;47.60
41866;BME280;27539;43.222;27.558;2022-09-11T14:27:43;99875.69;;;29.26;46.27
41866;BME280;27539;43.222;27.558;2022-09-11T14:30:26;99870.81;;;29.27;45.40
41866;BME280;27539;43.222;27.558;2022-09-11T14:33:14;99877.84;;;29.03;44.71
41866;BME280;27539;43.222;27.558;2022-09-11T14:35:42;99860.44;;;29.15;45.33
41866;BME280;27539;43.222;27.558;2022-09-11T14:38:10;99843.00;;;29.27;45.85
41866;BME280;27539;43.222;27.558;2022-09-11T14:40:44;99863.34;;;29.19;47.18
41866;BME280;27539;43.222;27.558;2022-09-11T14:43:11;99848.63;;;29.20;46.61
41866;BME280;27539;43.222;27.558;2022-09-11T14:45:37;99857.78;;;28.99;46.62
41866;BME280;27539;43.222;27.558;2022-09-11T14:48:09;99853.94;;;29.18;46.43
41866;BME280;27539;43.222;27.558;2022-09-11T14:50:36;99857.75;;;29.29;46.38
41866;BME280;27539;43.222;27.558;2022-09-11T14:53:02;99858.97;;;28.98;44.36
41866;BME280;27539;43.222;27.558;2022-09-11T14:55:28;99827.09;;;29.00;44.77
41866;BME280;27539;43.222;27.558;2022-09-11T14:57:54;99855.75;;;29.03;44.49
41866;BME280;27539;43.222;27.558;2022-09-11T15:00:20;99847.97;;;29.04;44.82
41866;BME280;27539;43.222;27.558;2022-09-11T15:02:45;99835.25;;;28.98;45.37
41866;BME280;27539;43.222;27.558;2022-09-11T15:05:14;99853.81;;;29.07;45.36
41866;BME280;27539;43.222;27.558;2022-09-11T15:07:40;99848.78;;;29.01;45.26
41866;BME280;27539;43.222;27.558;2022-09-11T15:10:09;99839.72;;;28.65;46.55
41866;BME280;27539;43.222;27.558;2022-09-11T15:12:34;99840.78;;;28.53;46.60
41866;BME280;27539;43.222;27.558;2022-09-11T15:15:00;99835.88;;;28.27;46.27
41866;BME280;27539;43.222;27.558;2022-09-11T15:17:27;99842.41;;;28.28;46.94
41866;BME280;27539;43.222;27.558;2022-09-11T15:19:56;99829.34;;;28.27;48.01
41866;BME280;27539;43.222;27.558;2022-09-11T15:22:23;99827.66;;;28.26;47.06
41866;BME280;27539;43.222;27.558;2022-09-11T15:24:49;99811.47;;;28.07;47.09
41866;BME280;27539;43.222;27.558;2022-09-11T15:27:15;99823.97;;;27.98;47.02
41866;BME280;27539;43.222;27.558;2022-09-11T15:29:41;99799.00;;;27.95;46.88
41866;BME280;27539;43.222;27.558;2022-09-11T15:32:06;99825.69;;;28.03;47.15
41866;BME280;27539;43.222;27.558;2022-09-11T15:34:34;99796.75;;;27.82;48.08
41866;BME280;27539;43.222;27.558;2022-09-11T15:37:00;99819.97;;;27.80;48.70
41866;BME280;27539;43.222;27.558;2022-09-11T15:39:26;99817.47;;;27.78;48.15
41866;BME280;27539;43.222;27.558;2022-09-11T15:41:53;99799.72;;;27.43;48.29
41866;BME280;27539;43.222;27.558;2022-09-11T15:44:22;99797.66;;;27.43;48.59
41866;BME280;27539;43.222;27.558;2022-09-11T15:46:49;99821.06;;;27.49;48.74
41866;BME280;27539;43.222;27.558;2022-09-11T15:49:16;99759.72;;;27.00;49.16
41866;BME280;27539;43.222;27.558;2022-09-11T15:51:41;99812.97;;;27.31;50.06
41866;BME280;27539;43.222;27.558;2022-09-11T15:54:09;99798.91;;;27.03;50.69
41866;BME280;27539;43.222;27.558;2022-09-11T15:56:35;99823.44;;;27.24;50.86
41866;BME280;27539;43.222;27.558;2022-09-11T15:59:01;99814.03;;;27.04;51.26
41866;BME280;27539;43.222;27.558;2022-09-11T16:01:29;99796.97;;;26.88;51.88
41866;BME280;27539;43.222;27.558;2022-09-11T16:04:04;99817.47;;;26.93;52.79
41866;BME280;27539;43.222;27.558;2022-09-11T16:06:33;99807.06;;;26.82;52.77
41866;BME280;27539;43.222;27.558;2022-09-11T16:09:00;99816.75;;;26.77;53.42
41866;BME280;27539;43.222;27.558;2022-09-11T16:11:30;99816.69;;;26.74;54.12
41866;BME280;27539;43.222;27.558;2022-09-11T16:13:56;99810.72;;;26.63;55.48
41866;BME280;27539;43.222;27.558;2022-09-11T16:16:22;99815.91;;;26.77;55.53
41866;BME280;27539;43.222;27.558;2022-09-11T16:18:48;99808.94;;;26.74;55.58
41866;BME280;27539;43.222;27.558;2022-09-11T16:21:16;99809.59;;;26.67;56.84
41866;BME280;27539;43.222;27.558;2022-09-11T16:23:43;99814.88;;;26.49;58.08
41866;BME280;27539;43.222;27.558;2022-09-11T16:26:12;99818.41;;;26.59;58.29
41866;BME280;27539;43.222;27.558;2022-09-11T16:28:39;99800.41;;;26.39;59.88
41866;BME280;27539;43.222;27.558;2022-09-11T16:31:06;99810.41;;;26.48;59.40
41866;BME280;27539;43.222;27.558;2022-09-11T16:33:34;99763.91;;;26.28;59.63
41866;BME280;27539;43.222;27.558;2022-09-11T16:36:03;99788.91;;;26.35;61.31
41866;BME280;27539;43.222;27.558;2022-09-11T16:38:31;99801.63;;;26.22;63.72
41866;BME280;27539;43.222;27.558;2022-09-11T16:41:17;99771.16;;;25.75;65.66
41866;BME280;27539;43.222;27.558;2022-09-11T16:43:51;99818.47;;;25.79;67.23
41866;BME280;27539;43.222;27.558;2022-09-11T16:46:22;99763.00;;;25.41;68.03
41866;BME280;27539;43.222;27.558;2022-09-11T16:48:49;99806.09;;;25.56;68.72
41866;BME280;27539;43.222;27.558;2022-09-11T16:51:16;99826.75;;;25.53;69.29
41866;BME280;27539;43.222;27.558;2022-09-11T16:53:43;99801.47;;;25.35;70.61
41866;BME280;27539;43.222;27.558;2022-09-11T16:56:12;99824.16;;;25.48;71.22
41866;BME280;27539;43.222;27.558;2022-09-11T16:58:39;99825.16;;;25.39;71.93
41866;BME280;27539;43.222;27.558;2022-09-11T17:01:08;99825.78;;;25.33;71.99
41866;BME280;27539;43.222;27.558;2022-09-11T17:03:35;99804.75;;;24.93;74.60
41866;BME280;27539;43.222;27.558;2022-09-11T17:06:01;99838.31;;;24.88;76.23
41866;BME280;27539;43.222;27.558;2022-09-11T17:08:27;99832.47;;;24.68;77.51
41866;BME280;27539;43.222;27.558;2022-09-11T17:10:56;99834.03;;;24.66;77.89
41866;BME280;27539;43.222;27.558;2022-09-11T17:13:22;99849.84;;;24.79;78.54
41866;BME280;27539;43.222;27.558;2022-09-11T17:15:48;99842.09;;;24.64;78.35
41866;BME280;27539;43.222;27.558;2022-09-11T17:18:15;99849.91;;;24.54;79.38
41866;BME280;27539;43.222;27.558;2022-09-11T17:20:41;99853.84;;;24.50;79.16
41866;BME280;27539;43.222;27.558;2022-09-11T17:23:07;99857.72;;;24.57;78.50
41866;BME280;27539;43.222;27.558;2022-09-11T17:25:37;99836.19;;;24.32;79.48
41866;BME280;27539;43.222;27.558;2022-09-11T17:28:03;99874.19;;;24.40;81.48
41866;BME280;27539;43.222;27.558;2022-09-11T17:30:30;99867.94;;;24.34;82.42
41866;BME280;27539;43.222;27.558;2022-09-11T17:32:55;99837.50;;;24.10;81.47
41866;BME280;27539;43.222;27.558;2022-09-11T17:35:22;99833.03;;;24.09;81.17
41866;BME280;27539;43.222;27.558;2022-09-11T17:37:48;99871.50;;;24.19;82.14
41866;BME280;27539;43.222;27.558;2022-09-11T17:40:15;99842.25;;;23.93;82.78
41866;BME280;27539;43.222;27.558;2022-09-11T17:42:41;99862.41;;;24.13;82.63
41866;BME280;27539;43.222;27.558;2022-09-11T17:45:09;99879.31;;;24.09;82.32
41866;BME280;27539;43.222;27.558;2022-09-11T17:47:37;99856.81;;;23.92;83.13
41866;BME280;27539;43.222;27.558;2022-09-11T17:50:03;99878.13;;;23.98;83.03
41866;BME280;27539;43.222;27.558;2022-09-11T17:52:29;99876.22;;;23.78;84.57
41866;BME280;27539;43.222;27.558;2022-09-11T17:54:56;99882.38;;;23.92;84.85
41866;BME280;27539;43.222;27.558;2022-09-11T17:57:22;99882.13;;;23.73;84.75
41866;BME280;27539;43.222;27.558;2022-09-11T17:59:49;99880.22;;;23.77;84.30
41866;BME280;27539;43.222;27.558;2022-09-11T18:02:15;99886.78;;;23.56;86.43
41866;BME280;27539;43.222;27.558;2022-09-11T18:04:42;99895.19;;;23.53;86.66
41866;BME280;27539;43.222;27.558;2022-09-11T18:07:09;99871.09;;;23.25;86.94
41866;BME280;27539;43.222;27.558;2022-09-11T18:09:34;99853.75;;;23.06;87.61
41866;BME280;27539;43.222;27.558;2022-09-11T18:14:54;99874.22;;;22.70;91.12
41866;BME280;27539;43.222;27.558;2022-09-11T18:17:21;99894.06;;;22.70;92.50
41866;BME280;27539;43.222;27.558;2022-09-11T18:19:47;99875.91;;;22.71;91.85
41866;BME280;27539;43.222;27.558;2022-09-11T18:22:12;99883.72;;;22.74;90.41
41866;BME280;27539;43.222;27.558;2022-09-11T18:24:38;99895.41;;;22.72;90.81
41866;BME280;27539;43.222;27.558;2022-09-11T18:27:03;99895.94;;;22.65;91.04
41866;BME280;27539;43.222;27.558;2022-09-11T18:29:30;99900.03;;;22.56;92.25
41866;BME280;27539;43.222;27.558;2022-09-11T18:31:56;99900.22;;;22.51;92.61
41866;BME280;27539;43.222;27.558;2022-09-11T18:34:24;99879.97;;;22.40;92.30
41866;BME280;27539;43.222;27.558;2022-09-11T18:36:50;99841.31;;;22.06;92.65
41866;BME280;27539;43.222;27.558;2022-09-11T18:39:17;99847.06;;;22.18;92.59
41866;BME280;27539;43.222;27.558;2022-09-11T18:41:44;99865.16;;;22.34;92.63
41866;BME280;27539;43.222;27.558;2022-09-11T18:54:46;99881.16;;;21.62;97.91
41866;BME280;27539;43.222;27.558;2022-09-11T18:57:11;99820.13;;;21.26;96.88
41866;BME280;27539;43.222;27.558;2022-09-11T18:59:37;99874.63;;;21.70;97.18
41866;BME280;27539;43.222;27.558;2022-09-11T19:02:03;99813.63;;;21.34;97.16
41866;BME280;27539;43.222;27.558;2022-09-11T19:09:40;99822.34;;;21.03;99.81
41866;BME280;27539;43.222;27.558;2022-09-11T19:12:06;99858.41;;;21.24;100.00
41866;BME280;27539;43.222;27.558;2022-09-11T19:59:24;99804.59;;;19.67;100.00
41866;BME280;27539;43.222;27.558;2022-09-11T20:01:50;99814.06;;;19.71;100.00
41866;BME280;27539;43.222;27.558;2022-09-11T20:04:15;99842.34;;;19.89;100.00
41866;BME280;27539;43.222;27.558;2022-09-11T20:32:10;99817.59;;;19.46;100.00
41866;BME280;27539;43.222;27.558;2022-09-11T20:45:15;99839.53;;;19.49;100.00
41866;BME280;27539;43.222;27.558;2022-09-11T21:32:16;99894.91;;;20.07;100.00
41866;BME280;27539;43.222;27.558;2022-09-11T21:34:44;99859.16;;;19.62;100.00
41866;BME280;27539;43.222;27.558;2022-09-11T22:05:44;99837.53;;;20.73;100.00
41866;BME280;27539;43.222;27.558;2022-09-11T22:11:01;99760.69;;;20.53;99.71
41866;BME280;27539;43.222;27.558;2022-09-11T22:16:52;99804.88;;;21.01;99.42
41866;BME280;27539;43.222;27.558;2022-09-11T22:19:18;99798.91;;;21.03;99.07
41866;BME280;27539;43.222;27.558;2022-09-11T22:24:23;99785.25;;;21.05;98.17
41866;BME280;27539;43.222;27.558;2022-09-11T22:26:48;99835.78;;;21.32;99.41
41866;BME280;27539;43.222;27.558;2022-09-11T22:29:14;99854.41;;;21.42;100.00
41866;BME280;27539;43.222;27.558;2022-09-11T22:31:39;99855.97;;;21.05;100.00
41866;BME280;27539;43.222;27.558;2022-09-11T22:34:08;99814.03;;;20.28;100.00
41866;BME280;27539;43.222;27.558;2022-09-11T22:57:42;99802.75;;;20.37;100.00
